sensor_id;sensor_type;location;lat;lon;timestamp;temperature;humidity
31387;DHT22;69978;50.096;8.448;2023-07-31T00:00:34;17.60;99.90
31387;DHT22;69978;50.096;8.448;2023-07-31T00:03:00;17.60;99.90
31387;DHT22;69978;50.096;8.448;2023-07-31T00:05:25;17.60;99.90
31387;DHT22;69978;50.096;8.448;2023-07-31T00:07:51;17.60;99.90
31387;DHT22;69978;50.096;8.448;2023-07-31T00:10:17;17.50;99.90
31387;DHT22;69978;50.096;8.448;2023-07-31T00:12:44;17.50;99.90
31387;DHT22;69978;50.096;8.448;2023-07-31T00:15:10;17.50;99.90
31387;DHT22;69978;50.096;8.448;2023-07-31T00:17:37;17.60;99.90
31387;DHT22;69978;50.096;8.448;2023-07-31T00:20:03;17.50;99.90
31387;DHT22;69978;50.096;8.448;2023-07-31T00:22:28;17.50;99.90
31387;DHT22;69978;50.096;8.448;2023-07-31T00:24:54;17.50;99.90
31387;DHT22;69978;50.096;8.448;2023-07-31T00:27:20;17.40;99.90
31387;DHT22;69978;50.096;8.448;2023-07-31T00:29:46;17.40;99.90
31387;DHT22;69978;50.096;8.448;2023-07-31T00:32:11;17.40;99.90
31387;DHT22;69978;50.096;8.448;2023-07-31T00:34:37;17.40;99.90
31387;DHT22;69978;50.096;8.448;2023-07-31T00:37:03;17.30;99.90
31387;DHT22;69978;50.096;8.448;2023-07-31T00:39:30;17.30;99.90
31387;DHT22;69978;50.096;8.448;2023-07-31T00:41:56;17.30;99.90
31387;DHT22;69978;50.096;8.448;2023-07-31T00:44:21;17.30;99.90
31387;DHT22;69978;50.096;8.448;2023-07-31T00:46:47;17.20;99.90
31387;DHT22;69978;50.096;8.448;2023-07-31T00:49:12;17.20;99.90
31387;DHT22;69978;50.096;8.448;2023-07-31T00:51:38;17.20;99.90
31387;DHT22;69978;50.096;8.448;2023-07-31T00:54:06;17.20;99.90
31387;DHT22;69978;50.096;8.448;2023-07-31T00:56:32;17.20;99.90
31387;DHT22;69978;50.096;8.448;2023-07-31T00:58:58;17.20;99.90
31387;DHT22;69978;50.096;8.448;2023-07-31T01:01:23;17.10;99.90
31387;DHT22;69978;50.096;8.448;2023-07-31T01:03:51;17.10;99.90
31387;DHT22;69978;50.096;8.448;2023-07-31T01:12:03;17.00;99.90
31387;DHT22;69978;50.096;8.448;2023-07-31T01:14:29;17.00;99.90
31387;DHT22;69978;50.096;8.448;2023-07-31T01:16:55;17.00;99.90
31387;DHT22;69978;50.096;8.448;2023-07-31T01:19:25;16.90;99.90
31387;DHT22;69978;50.096;8.448;2023-07-31T01:27:17;16.90;99.90
31387;DHT22;69978;50.096;8.448;2023-07-31T01:29:47;16.90;99.90
31387;DHT22;69978;50.096;8.448;2023-07-31T01:32:15;16.90;99.90
31387;DHT22;69978;50.096;8.448;2023-07-31T01:34:43;16.90;99.90
31387;DHT22;69978;50.096;8.448;2023-07-31T01:37:09;16.80;99.90
31387;DHT22;69978;50.096;8.448;2023-07-31T01:39:35;16.80;99.90
31387;DHT22;69978;50.096;8.448;2023-07-31T01:42:00;16.80;99.90
31387;DHT22;69978;50.096;8.448;2023-07-31T01:44:26;16.80;99.90
31387;DHT22;69978;50.096;8.448;2023-07-31T01:46:51;16.80;99.90
31387;DHT22;69978;50.096;8.448;2023-07-31T01:49:17;16.80;99.90
31387;DHT22;69978;50.096;8.448;2023-07-31T01:51:43;16.90;99.90
31387;DHT22;69978;50.096;8.448;2023-07-31T01:54:08;16.90;99.90
31387;DHT22;69978;50.096;8.448;2023-07-31T01:56:34;16.90;99.90
31387;DHT22;69978;50.096;8.448;2023-07-31T01:58:59;16.90;99.90
31387;DHT22;69978;50.096;8.448;2023-07-31T02:01:25;16.90;99.90
31387;DHT22;69978;50.096;8.448;2023-07-31T02:03:50;16.90;99.90
31387;DHT22;69978;50.096;8.448;2023-07-31T02:06:16;16.90;99.90
31387;DHT22;69978;50.096;8.448;2023-07-31T02:08:42;16.80;99.90
31387;DHT22;69978;50.096;8.448;2023-07-31T02:11:07;16.90;99.90
31387;DHT22;69978;50.096;8.448;2023-07-31T02:13:33;16.90;99.90
31387;DHT22;69978;50.096;8.448;2023-07-31T02:15:58;16.90;99.90
31387;DHT22;69978;50.096;8.448;2023-07-31T02:18:24;16.90;99.90
31387;DHT22;69978;50.096;8.448;2023-07-31T02:20:50;16.90;99.90
31387;DHT22;69978;50.096;8.448;2023-07-31T02:23:17;16.90;99.90
31387;DHT22;69978;50.096;8.448;2023-07-31T02:25:44;16.90;99.90
31387;DHT22;69978;50.096;8.448;2023-07-31T02:28:09;16.90;99.90
31387;DHT22;69978;50.096;8.448;2023-07-31T02:30:35;16.90;99.90
31387;DHT22;69978;50.096;8.448;2023-07-31T02:33:01;16.90;99.90
31387;DHT22;69978;50.096;8.448;2023-07-31T02:35:26;16.90;99.90
31387;DHT22;69978;50.096;8.448;2023-07-31T02:37:52;16.90;99.90
31387;DHT22;69978;50.096;8.448;2023-07-31T02:40:17;17.00;99.90
31387;DHT22;69978;50.096;8.448;2023-07-31T02:42:43;17.00;99.90
31387;DHT22;69978;50.096;8.448;2023-07-31T02:45:09;17.10;99.90
31387;DHT22;69978;50.096;8.448;2023-07-31T02:47:34;17.00;99.90
31387;DHT22;69978;50.096;8.448;2023-07-31T02:50:01;17.00;99.90
31387;DHT22;69978;50.096;8.448;2023-07-31T02:52:26;16.90;99.90
31387;DHT22;69978;50.096;8.448;2023-07-31T02:54:52;17.00;99.90
31387;DHT22;69978;50.096;8.448;2023-07-31T02:57:17;17.10;99.90
31387;DHT22;69978;50.096;8.448;2023-07-31T02:59:43;17.10;99.90
31387;DHT22;69978;50.096;8.448;2023-07-31T03:02:09;17.10;99.90
31387;DHT22;69978;50.096;8.448;2023-07-31T03:04:34;17.00;99.90
31387;DHT22;69978;50.096;8.448;2023-07-31T03:07:00;17.00;99.90
31387;DHT22;69978;50.096;8.448;2023-07-31T03:09:25;17.00;99.90
31387;DHT22;69978;50.096;8.448;2023-07-31T03:11:51;17.00;99.90
31387;DHT22;69978;50.096;8.448;2023-07-31T03:14:16;17.10;99.90
31387;DHT22;69978;50.096;8.448;2023-07-31T03:16:42;17.10;99.90
31387;DHT22;69978;50.096;8.448;2023-07-31T03:19:07;17.10;99.90
31387;DHT22;69978;50.096;8.448;2023-07-31T03:21:33;17.20;99.90
31387;DHT22;69978;50.096;8.448;2023-07-31T03:23:59;17.20;99.90
31387;DHT22;69978;50.096;8.448;2023-07-31T03:26:24;17.20;99.90
31387;DHT22;69978;50.096;8.448;2023-07-31T03:28:50;17.20;99.90
31387;DHT22;69978;50.096;8.448;2023-07-31T03:31:15;17.20;99.90
31387;DHT22;69978;50.096;8.448;2023-07-31T03:33:41;17.20;99.90
31387;DHT22;69978;50.096;8.448;2023-07-31T03:36:07;17.20;99.90
31387;DHT22;69978;50.096;8.448;2023-07-31T03:38:34;17.20;99.90
31387;DHT22;69978;50.096;8.448;2023-07-31T03:40:59;17.20;99.90
31387;DHT22;69978;50.096;8.448;2023-07-31T03:43:25;17.20;99.90
31387;DHT22;69978;50.096;8.448;2023-07-31T03:45:50;17.20;99.90
31387;DHT22;69978;50.096;8.448;2023-07-31T03:48:16;17.30;99.90
31387;DHT22;69978;50.096;8.448;2023-07-31T03:50:42;17.20;99.90
31387;DHT22;69978;50.096;8.448;2023-07-31T03:53:07;17.20;99.90
31387;DHT22;69978;50.096;8.448;2023-07-31T03:55:33;17.20;99.90
31387;DHT22;69978;50.096;8.448;2023-07-31T03:57:59;17.20;99.90
31387;DHT22;69978;50.096;8.448;2023-07-31T04:00:26;17.20;99.90
31387;DHT22;69978;50.096;8.448;2023-07-31T04:02:52;17.20;99.90
31387;DHT22;69978;50.096;8.448;2023-07-31T04:05:18;17.10;99.90
31387;DHT22;69978;50.096;8.448;2023-07-31T04:07:43;17.20;99.90
31387;DHT22;69978;50.096;8.448;2023-07-31T04:10:09;17.20;99.90
31387;DHT22;69978;50.096;8.448;2023-07-31T04:12:35;17.20;99.90
31387;DHT22;69978;50.096;8.448;2023-07-31T04:15:00;17.20;99.90
31387;DHT22;69978;50.096;8.448;2023-07-31T04:17:26;17.20;99.90
31387;DHT22;69978;50.096;8.448;2023-07-31T04:19:51;17.30;99.90
31387;DHT22;69978;50.096;8.448;2023-07-31T04:22:17;17.30;99.90
31387;DHT22;69978;50.096;8.448;2023-07-31T04:24:42;17.30;99.90
31387;DHT22;69978;50.096;8.448;2023-07-31T04:27:08;17.30;99.90
31387;DHT22;69978;50.096;8.448;2023-07-31T04:29:34;17.30;99.90
31387;DHT22;69978;50.096;8.448;2023-07-31T04:31:59;17.30;99.90
31387;DHT22;69978;50.096;8.448;2023-07-31T04:34:25;17.30;99.90
31387;DHT22;69978;50.096;8.448;2023-07-31T04:36:50;17.30;99.90
31387;DHT22;69978;50.096;8.448;2023-07-31T04:39:16;17.30;99.90
31387;DHT22;69978;50.096;8.448;2023-07-31T04:41:42;17.30;99.90
31387;DHT22;69978;50.096;8.448;2023-07-31T04:44:07;17.40;99.90
31387;DHT22;69978;50.096;8.448;2023-07-31T04:46:33;17.40;99.90
31387;DHT22;69978;50.096;8.448;2023-07-31T04:48:58;17.30;99.90
31387;DHT22;69978;50.096;8.448;2023-07-31T04:51:24;17.30;99.90
31387;DHT22;69978;50.096;8.448;2023-07-31T04:53:50;17.30;99.90
31387;DHT22;69978;50.096;8.448;2023-07-31T04:56:16;17.20;99.90
31387;DHT22;69978;50.096;8.448;2023-07-31T04:58:41;17.30;99.90
31387;DHT22;69978;50.096;8.448;2023-07-31T05:01:07;17.30;99.90
31387;DHT22;69978;50.096;8.448;2023-07-31T05:03:32;17.30;99.90
31387;DHT22;69978;50.096;8.448;2023-07-31T05:05:58;17.30;99.90
31387;DHT22;69978;50.096;8.448;2023-07-31T05:08:24;17.20;99.90
31387;DHT22;69978;50.096;8.448;2023-07-31T05:10:50;17.20;99.90
31387;DHT22;69978;50.096;8.448;2023-07-31T05:13:15;17.30;99.90
31387;DHT22;69978;50.096;8.448;2023-07-31T05:15:41;17.20;99.90
31387;DHT22;69978;50.096;8.448;2023-07-31T05:18:07;17.20;99.90
31387;DHT22;69978;50.096;8.448;2023-07-31T05:20:32;17.20;99.90
31387;DHT22;69978;50.096;8.448;2023-07-31T05:22:58;17.20;99.90
31387;DHT22;69978;50.096;8.448;2023-07-31T05:25:24;17.10;99.90
31387;DHT22;69978;50.096;8.448;2023-07-31T05:27:49;17.20;99.90
31387;DHT22;69978;50.096;8.448;2023-07-31T05:30:15;17.10;99.90
31387;DHT22;69978;50.096;8.448;2023-07-31T05:32:40;17.20;99.90
31387;DHT22;69978;50.096;8.448;2023-07-31T05:35:06;17.20;99.90
31387;DHT22;69978;50.096;8.448;2023-07-31T05:37:32;17.20;99.90
31387;DHT22;69978;50.096;8.448;2023-07-31T05:39:58;17.20;99.90
31387;DHT22;69978;50.096;8.448;2023-07-31T05:42:23;17.20;99.90
31387;DHT22;69978;50.096;8.448;2023-07-31T05:44:49;17.10;99.90
31387;DHT22;69978;50.096;8.448;2023-07-31T05:47:14;17.10;99.90
31387;DHT22;69978;50.096;8.448;2023-07-31T05:49:40;17.10;99.90
31387;DHT22;69978;50.096;8.448;2023-07-31T05:52:06;17.20;99.90
31387;DHT22;69978;50.096;8.448;2023-07-31T05:54:32;17.20;99.90
31387;DHT22;69978;50.096;8.448;2023-07-31T05:56:58;17.20;99.90
31387;DHT22;69978;50.096;8.448;2023-07-31T05:59:23;17.20;99.90
31387;DHT22;69978;50.096;8.448;2023-07-31T06:01:49;17.20;99.90
31387;DHT22;69978;50.096;8.448;2023-07-31T06:04:15;17.20;99.90
31387;DHT22;69978;50.096;8.448;2023-07-31T06:06:40;17.30;99.90
31387;DHT22;69978;50.096;8.448;2023-07-31T06:09:06;17.30;99.90
31387;DHT22;69978;50.096;8.448;2023-07-31T06:11:32;17.30;99.90
31387;DHT22;69978;50.096;8.448;2023-07-31T06:13:58;17.30;99.90
31387;DHT22;69978;50.096;8.448;2023-07-31T06:16:23;17.30;99.90
31387;DHT22;69978;50.096;8.448;2023-07-31T06:18:49;17.40;99.90
31387;DHT22;69978;50.096;8.448;2023-07-31T06:21:15;17.40;99.90
31387;DHT22;69978;50.096;8.448;2023-07-31T06:23:40;17.50;99.90
31387;DHT22;69978;50.096;8.448;2023-07-31T06:26:06;17.50;99.90
31387;DHT22;69978;50.096;8.448;2023-07-31T06:28:32;17.60;99.90
31387;DHT22;69978;50.096;8.448;2023-07-31T06:30:58;17.60;99.90
31387;DHT22;69978;50.096;8.448;2023-07-31T06:33:24;17.70;99.90
31387;DHT22;69978;50.096;8.448;2023-07-31T06:35:50;17.60;99.90
31387;DHT22;69978;50.096;8.448;2023-07-31T06:38:18;17.60;99.90
31387;DHT22;69978;50.096;8.448;2023-07-31T06:40:43;17.70;99.90
31387;DHT22;69978;50.096;8.448;2023-07-31T06:43:09;17.60;99.90
31387;DHT22;69978;50.096;8.448;2023-07-31T06:45:35;17.70;99.90
31387;DHT22;69978;50.096;8.448;2023-07-31T06:48:02;17.70;99.90
31387;DHT22;69978;50.096;8.448;2023-07-31T06:50:28;17.70;99.90
31387;DHT22;69978;50.096;8.448;2023-07-31T06:52:54;17.70;99.90
31387;DHT22;69978;50.096;8.448;2023-07-31T06:55:21;17.70;99.90
31387;DHT22;69978;50.096;8.448;2023-07-31T06:57:48;17.80;99.90
31387;DHT22;69978;50.096;8.448;2023-07-31T07:00:15;17.80;99.90
31387;DHT22;69978;50.096;8.448;2023-07-31T07:02:41;17.90;99.90
31387;DHT22;69978;50.096;8.448;2023-07-31T07:05:07;17.90;99.90
31387;DHT22;69978;50.096;8.448;2023-07-31T07:07:33;17.90;99.90
31387;DHT22;69978;50.096;8.448;2023-07-31T07:09:59;17.90;99.90
31387;DHT22;69978;50.096;8.448;2023-07-31T07:12:25;17.90;99.90
31387;DHT22;69978;50.096;8.448;2023-07-31T07:14:51;18.00;99.90
31387;DHT22;69978;50.096;8.448;2023-07-31T07:17:18;18.00;99.90
31387;DHT22;69978;50.096;8.448;2023-07-31T07:19:44;18.00;99.90
31387;DHT22;69978;50.096;8.448;2023-07-31T07:22:11;18.00;99.90
31387;DHT22;69978;50.096;8.448;2023-07-31T07:24:37;18.20;99.90
31387;DHT22;69978;50.096;8.448;2023-07-31T07:27:03;18.20;99.90
31387;DHT22;69978;50.096;8.448;2023-07-31T07:29:28;18.30;99.90
31387;DHT22;69978;50.096;8.448;2023-07-31T07:31:54;18.50;99.90
31387;DHT22;69978;50.096;8.448;2023-07-31T07:34:19;18.60;99.90
31387;DHT22;69978;50.096;8.448;2023-07-31T07:36:48;18.70;99.90
31387;DHT22;69978;50.096;8.448;2023-07-31T07:39:14;18.80;99.90
31387;DHT22;69978;50.096;8.448;2023-07-31T07:41:39;18.90;99.90
31387;DHT22;69978;50.096;8.448;2023-07-31T07:44:05;18.90;99.90
31387;DHT22;69978;50.096;8.448;2023-07-31T07:46:30;18.90;99.90
31387;DHT22;69978;50.096;8.448;2023-07-31T07:48:56;19.00;99.90
31387;DHT22;69978;50.096;8.448;2023-07-31T07:51:21;18.90;99.90
31387;DHT22;69978;50.096;8.448;2023-07-31T07:53:47;18.90;99.90
31387;DHT22;69978;50.096;8.448;2023-07-31T07:56:13;19.00;99.90
31387;DHT22;69978;50.096;8.448;2023-07-31T07:58:38;19.00;99.90
31387;DHT22;69978;50.096;8.448;2023-07-31T08:01:04;19.10;99.90
31387;DHT22;69978;50.096;8.448;2023-07-31T08:03:29;19.10;99.90
31387;DHT22;69978;50.096;8.448;2023-07-31T08:05:59;19.30;99.90
31387;DHT22;69978;50.096;8.448;2023-07-31T08:08:25;19.20;99.90
31387;DHT22;69978;50.096;8.448;2023-07-31T08:10:50;19.30;99.90
31387;DHT22;69978;50.096;8.448;2023-07-31T08:13:16;19.30;99.90
31387;DHT22;69978;50.096;8.448;2023-07-31T08:15:42;19.30;99.90
31387;DHT22;69978;50.096;8.448;2023-07-31T08:18:08;19.30;99.90
31387;DHT22;69978;50.096;8.448;2023-07-31T08:20:34;19.30;99.90
31387;DHT22;69978;50.096;8.448;2023-07-31T08:22:59;19.30;99.90
31387;DHT22;69978;50.096;8.448;2023-07-31T08:25:25;19.30;99.90
31387;DHT22;69978;50.096;8.448;2023-07-31T08:27:50;19.40;99.90
31387;DHT22;69978;50.096;8.448;2023-07-31T08:30:18;19.50;99.90
31387;DHT22;69978;50.096;8.448;2023-07-31T08:32:44;19.50;99.90
31387;DHT22;69978;50.096;8.448;2023-07-31T08:35:10;19.50;99.90
31387;DHT22;69978;50.096;8.448;2023-07-31T08:37:37;19.50;99.90
31387;DHT22;69978;50.096;8.448;2023-07-31T08:40:04;19.50;99.90
31387;DHT22;69978;50.096;8.448;2023-07-31T08:42:30;19.50;99.90
31387;DHT22;69978;50.096;8.448;2023-07-31T08:44:56;19.60;99.90
31387;DHT22;69978;50.096;8.448;2023-07-31T08:47:22;19.70;99.90
31387;DHT22;69978;50.096;8.448;2023-07-31T08:49:49;19.60;99.90
31387;DHT22;69978;50.096;8.448;2023-07-31T08:52:15;19.60;99.90
31387;DHT22;69978;50.096;8.448;2023-07-31T08:54:41;19.60;99.90
31387;DHT22;69978;50.096;8.448;2023-07-31T08:57:07;19.60;99.90
31387;DHT22;69978;50.096;8.448;2023-07-31T08:59:34;19.60;99.90
31387;DHT22;69978;50.096;8.448;2023-07-31T09:02:05;19.70;99.90
31387;DHT22;69978;50.096;8.448;2023-07-31T09:04:32;19.70;99.90
31387;DHT22;69978;50.096;8.448;2023-07-31T09:07:01;19.80;99.90
31387;DHT22;69978;50.096;8.448;2023-07-31T09:09:29;19.80;99.90
31387;DHT22;69978;50.096;8.448;2023-07-31T09:11:55;19.80;99.90
31387;DHT22;69978;50.096;8.448;2023-07-31T09:14:21;19.80;99.90
31387;DHT22;69978;50.096;8.448;2023-07-31T09:19:27;19.90;99.90
31387;DHT22;69978;50.096;8.448;2023-07-31T09:21:53;19.90;99.90
31387;DHT22;69978;50.096;8.448;2023-07-31T09:24:26;20.00;99.90
31387;DHT22;69978;50.096;8.448;2023-07-31T09:26:54;20.20;99.90
31387;DHT22;69978;50.096;8.448;2023-07-31T09:29:21;20.30;99.90
31387;DHT22;69978;50.096;8.448;2023-07-31T09:31:46;20.50;99.90
31387;DHT22;69978;50.096;8.448;2023-07-31T09:34:12;20.60;99.90
31387;DHT22;69978;50.096;8.448;2023-07-31T09:36:42;20.50;99.90
31387;DHT22;69978;50.096;8.448;2023-07-31T09:39:12;20.50;99.90
31387;DHT22;69978;50.096;8.448;2023-07-31T09:41:45;20.50;99.90
31387;DHT22;69978;50.096;8.448;2023-07-31T09:44:11;20.40;99.90
31387;DHT22;69978;50.096;8.448;2023-07-31T09:46:37;20.30;99.90
31387;DHT22;69978;50.096;8.448;2023-07-31T09:51:33;20.10;99.90
31387;DHT22;69978;50.096;8.448;2023-07-31T09:54:10;20.20;99.90
31387;DHT22;69978;50.096;8.448;2023-07-31T09:56:47;20.20;99.90
31387;DHT22;69978;50.096;8.448;2023-07-31T09:59:18;20.30;99.90
31387;DHT22;69978;50.096;8.448;2023-07-31T10:01:45;20.40;99.90
31387;DHT22;69978;50.096;8.448;2023-07-31T10:04:14;20.40;99.90
31387;DHT22;69978;50.096;8.448;2023-07-31T10:06:43;20.50;99.90
31387;DHT22;69978;50.096;8.448;2023-07-31T10:09:12;20.50;99.90
31387;DHT22;69978;50.096;8.448;2023-07-31T10:11:41;20.60;99.90
31387;DHT22;69978;50.096;8.448;2023-07-31T10:14:10;20.70;99.90
31387;DHT22;69978;50.096;8.448;2023-07-31T10:16:38;20.80;99.90
31387;DHT22;69978;50.096;8.448;2023-07-31T10:19:05;20.80;99.90
31387;DHT22;69978;50.096;8.448;2023-07-31T10:21:31;20.80;99.90
31387;DHT22;69978;50.096;8.448;2023-07-31T10:24:02;20.60;99.90
31387;DHT22;69978;50.096;8.448;2023-07-31T10:26:29;20.60;99.90
31387;DHT22;69978;50.096;8.448;2023-07-31T10:28:56;20.70;99.90
31387;DHT22;69978;50.096;8.448;2023-07-31T10:31:24;20.70;99.90
31387;DHT22;69978;50.096;8.448;2023-07-31T10:33:52;20.80;99.90
31387;DHT22;69978;50.096;8.448;2023-07-31T10:36:20;20.80;99.90
31387;DHT22;69978;50.096;8.448;2023-07-31T10:38:49;20.90;99.90
31387;DHT22;69978;50.096;8.448;2023-07-31T10:41:15;21.00;99.90
31387;DHT22;69978;50.096;8.448;2023-07-31T10:43:41;21.10;99.90
31387;DHT22;69978;50.096;8.448;2023-07-31T10:46:08;21.10;99.90
31387;DHT22;69978;50.096;8.448;2023-07-31T10:48:35;21.20;99.90
31387;DHT22;69978;50.096;8.448;2023-07-31T10:51:07;21.20;99.90
31387;DHT22;69978;50.096;8.448;2023-07-31T10:53:33;21.30;99.90
31387;DHT22;69978;50.096;8.448;2023-07-31T10:56:09;21.40;99.90
31387;DHT22;69978;50.096;8.448;2023-07-31T10:58:36;21.50;99.90
31387;DHT22;69978;50.096;8.448;2023-07-31T11:01:03;21.70;99.90
31387;DHT22;69978;50.096;8.448;2023-07-31T11:03:50;22.10;99.90
31387;DHT22;69978;50.096;8.448;2023-07-31T11:06:19;22.30;99.90
31387;DHT22;69978;50.096;8.448;2023-07-31T11:08:46;22.20;99.90
31387;DHT22;69978;50.096;8.448;2023-07-31T11:11:17;22.60;99.90
31387;DHT22;69978;50.096;8.448;2023-07-31T11:16:14;23.00;99.90
31387;DHT22;69978;50.096;8.448;2023-07-31T11:18:43;23.00;99.90
31387;DHT22;69978;50.096;8.448;2023-07-31T11:21:20;22.60;99.90
31387;DHT22;69978;50.096;8.448;2023-07-31T11:23:54;22.40;99.90
31387;DHT22;69978;50.096;8.448;2023-07-31T11:26:23;22.10;99.90
31387;DHT22;69978;50.096;8.448;2023-07-31T11:28:50;22.00;99.90
31387;DHT22;69978;50.096;8.448;2023-07-31T11:31:16;21.90;99.90
31387;DHT22;69978;50.096;8.448;2023-07-31T11:33:42;21.80;99.90
31387;DHT22;69978;50.096;8.448;2023-07-31T11:36:18;21.90;99.90
31387;DHT22;69978;50.096;8.448;2023-07-31T11:38:44;21.80;99.90
31387;DHT22;69978;50.096;8.448;2023-07-31T11:41:10;21.80;99.90
31387;DHT22;69978;50.096;8.448;2023-07-31T11:43:38;21.90;99.90
31387;DHT22;69978;50.096;8.448;2023-07-31T11:46:04;21.90;99.90
31387;DHT22;69978;50.096;8.448;2023-07-31T11:48:33;22.00;99.90
31387;DHT22;69978;50.096;8.448;2023-07-31T11:51:05;22.00;99.90
31387;DHT22;69978;50.096;8.448;2023-07-31T11:56:07;22.10;99.90
31387;DHT22;69978;50.096;8.448;2023-07-31T11:58:34;22.00;99.90
31387;DHT22;69978;50.096;8.448;2023-07-31T12:01:01;21.90;99.90
31387;DHT22;69978;50.096;8.448;2023-07-31T12:03:27;21.80;99.90
31387;DHT22;69978;50.096;8.448;2023-07-31T12:05:54;21.80;99.90
31387;DHT22;69978;50.096;8.448;2023-07-31T12:08:22;21.70;99.90
31387;DHT22;69978;50.096;8.448;2023-07-31T12:10:50;21.70;99.90
31387;DHT22;69978;50.096;8.448;2023-07-31T12:13:26;21.70;99.90
31387;DHT22;69978;50.096;8.448;2023-07-31T12:16:00;21.70;99.90
31387;DHT22;69978;50.096;8.448;2023-07-31T12:18:30;21.70;99.90
31387;DHT22;69978;50.096;8.448;2023-07-31T12:21:00;21.60;99.90
31387;DHT22;69978;50.096;8.448;2023-07-31T12:23:28;21.60;99.90
31387;DHT22;69978;50.096;8.448;2023-07-31T12:28:40;21.50;99.90
31387;DHT22;69978;50.096;8.448;2023-07-31T12:31:11;21.50;99.90
31387;DHT22;69978;50.096;8.448;2023-07-31T12:33:38;21.50;99.90
31387;DHT22;69978;50.096;8.448;2023-07-31T12:36:14;21.50;99.90
31387;DHT22;69978;50.096;8.448;2023-07-31T12:38:43;21.50;99.90
31387;DHT22;69978;50.096;8.448;2023-07-31T12:41:10;21.60;99.90
31387;DHT22;69978;50.096;8.448;2023-07-31T12:43:37;21.60;99.90
31387;DHT22;69978;50.096;8.448;2023-07-31T12:46:03;21.60;99.90
31387;DHT22;69978;50.096;8.448;2023-07-31T12:48:29;21.80;99.90
31387;DHT22;69978;50.096;8.448;2023-07-31T12:50:55;22.00;99.90
31387;DHT22;69978;50.096;8.448;2023-07-31T12:53:21;22.40;99.90
31387;DHT22;69978;50.096;8.448;2023-07-31T12:55:46;22.70;99.90
31387;DHT22;69978;50.096;8.448;2023-07-31T12:58:12;22.70;99.90
31387;DHT22;69978;50.096;8.448;2023-07-31T13:00:37;22.90;99.90
31387;DHT22;69978;50.096;8.448;2023-07-31T13:03:03;23.20;99.90
31387;DHT22;69978;50.096;8.448;2023-07-31T13:05:29;23.30;99.90
31387;DHT22;69978;50.096;8.448;2023-07-31T13:07:55;23.20;99.90
31387;DHT22;69978;50.096;8.448;2023-07-31T13:10:22;23.20;99.90
31387;DHT22;69978;50.096;8.448;2023-07-31T13:12:48;23.10;99.90
31387;DHT22;69978;50.096;8.448;2023-07-31T13:15:14;23.10;99.90
31387;DHT22;69978;50.096;8.448;2023-07-31T13:17:39;23.20;99.90
31387;DHT22;69978;50.096;8.448;2023-07-31T13:20:05;23.20;99.90
31387;DHT22;69978;50.096;8.448;2023-07-31T13:22:31;23.10;99.90
31387;DHT22;69978;50.096;8.448;2023-07-31T13:24:57;23.10;99.90
31387;DHT22;69978;50.096;8.448;2023-07-31T13:27:23;23.40;99.90
31387;DHT22;69978;50.096;8.448;2023-07-31T13:29:50;23.60;99.90
31387;DHT22;69978;50.096;8.448;2023-07-31T13:32:16;23.60;99.90
31387;DHT22;69978;50.096;8.448;2023-07-31T13:34:43;23.40;99.90
31387;DHT22;69978;50.096;8.448;2023-07-31T13:37:08;23.40;99.90
31387;DHT22;69978;50.096;8.448;2023-07-31T13:39:34;23.40;99.90
31387;DHT22;69978;50.096;8.448;2023-07-31T13:42:00;23.10;99.90
31387;DHT22;69978;50.096;8.448;2023-07-31T13:44:26;23.00;99.90
31387;DHT22;69978;50.096;8.448;2023-07-31T13:46:52;22.90;99.90
31387;DHT22;69978;50.096;8.448;2023-07-31T13:49:17;22.90;99.90
31387;DHT22;69978;50.096;8.448;2023-07-31T13:51:43;22.80;99.90
31387;DHT22;69978;50.096;8.448;2023-07-31T13:54:08;22.70;99.90
31387;DHT22;69978;50.096;8.448;2023-07-31T13:56:36;22.60;99.90
31387;DHT22;69978;50.096;8.448;2023-07-31T13:59:02;22.60;99.90
31387;DHT22;69978;50.096;8.448;2023-07-31T14:01:28;22.60;99.90
31387;DHT22;69978;50.096;8.448;2023-07-31T14:03:53;22.50;99.90
31387;DHT22;69978;50.096;8.448;2023-07-31T14:06:19;22.40;99.90
31387;DHT22;69978;50.096;8.448;2023-07-31T14:08:45;22.40;99.90
31387;DHT22;69978;50.096;8.448;2023-07-31T14:11:10;22.30;99.90
31387;DHT22;69978;50.096;8.448;2023-07-31T14:13:36;22.20;99.90
31387;DHT22;69978;50.096;8.448;2023-07-31T14:16:02;22.00;99.90
31387;DHT22;69978;50.096;8.448;2023-07-31T14:18:27;22.00;99.90
31387;DHT22;69978;50.096;8.448;2023-07-31T14:20:53;21.90;99.90
31387;DHT22;69978;50.096;8.448;2023-07-31T14:23:19;21.90;99.90
31387;DHT22;69978;50.096;8.448;2023-07-31T14:25:45;21.90;99.90
31387;DHT22;69978;50.096;8.448;2023-07-31T14:28:11;21.80;99.90
31387;DHT22;69978;50.096;8.448;2023-07-31T14:30:37;21.80;99.90
31387;DHT22;69978;50.096;8.448;2023-07-31T14:33:02;21.80;99.90
31387;DHT22;69978;50.096;8.448;2023-07-31T14:35:28;21.80;99.90
31387;DHT22;69978;50.096;8.448;2023-07-31T14:37:54;21.90;99.90
31387;DHT22;69978;50.096;8.448;2023-07-31T14:40:20;21.90;99.90
31387;DHT22;69978;50.096;8.448;2023-07-31T14:42:45;21.80;99.90
31387;DHT22;69978;50.096;8.448;2023-07-31T14:45:11;21.80;99.90
31387;DHT22;69978;50.096;8.448;2023-07-31T14:47:37;21.80;99.90
31387;DHT22;69978;50.096;8.448;2023-07-31T14:50:03;21.80;99.90
31387;DHT22;69978;50.096;8.448;2023-07-31T14:52:29;21.80;99.90
31387;DHT22;69978;50.096;8.448;2023-07-31T14:54:55;21.80;99.90
31387;DHT22;69978;50.096;8.448;2023-07-31T14:57:21;21.80;99.90
31387;DHT22;69978;50.096;8.448;2023-07-31T14:59:47;21.80;99.90
31387;DHT22;69978;50.096;8.448;2023-07-31T15:02:12;21.70;99.90
31387;DHT22;69978;50.096;8.448;2023-07-31T15:04:39;21.70;99.90
31387;DHT22;69978;50.096;8.448;2023-07-31T15:07:05;21.70;99.90
31387;DHT22;69978;50.096;8.448;2023-07-31T15:09:31;21.60;99.90
31387;DHT22;69978;50.096;8.448;2023-07-31T15:11:57;21.60;99.90
31387;DHT22;69978;50.096;8.448;2023-07-31T15:14:24;21.40;99.90
31387;DHT22;69978;50.096;8.448;2023-07-31T15:16:50;21.40;99.90
31387;DHT22;69978;50.096;8.448;2023-07-31T15:19:15;21.40;99.90
31387;DHT22;69978;50.096;8.448;2023-07-31T15:21:41;21.30;99.90
31387;DHT22;69978;50.096;8.448;2023-07-31T15:24:07;21.30;99.90
31387;DHT22;69978;50.096;8.448;2023-07-31T15:26:33;21.20;99.90
31387;DHT22;69978;50.096;8.448;2023-07-31T15:29:04;21.20;99.90
31387;DHT22;69978;50.096;8.448;2023-07-31T15:31:38;21.20;99.90
31387;DHT22;69978;50.096;8.448;2023-07-31T15:34:03;21.20;99.90
31387;DHT22;69978;50.096;8.448;2023-07-31T15:36:29;21.10;99.90
31387;DHT22;69978;50.096;8.448;2023-07-31T15:38:55;21.10;99.90
31387;DHT22;69978;50.096;8.448;2023-07-31T15:41:20;20.90;99.90
31387;DHT22;69978;50.096;8.448;2023-07-31T15:43:46;20.90;99.90
31387;DHT22;69978;50.096;8.448;2023-07-31T15:46:12;20.90;99.90
31387;DHT22;69978;50.096;8.448;2023-07-31T15:48:38;20.90;99.90